createdAt,value
2022-07-28T00:01:01.925Z,18.10
2022-07-28T00:03:29.863Z,18.00
2022-07-28T00:05:59.109Z,18.00
2022-07-28T00:08:26.945Z,17.90
2022-07-28T00:10:54.818Z,17.90
2022-07-28T00:13:22.707Z,17.80
2022-07-28T00:15:50.618Z,17.90
2022-07-28T00:18:18.523Z,17.80
2022-07-28T00:20:46.385Z,17.80
2022-07-28T00:23:15.606Z,17.80
2022-07-28T00:25:43.454Z,17.80
2022-07-28T00:28:11.316Z,17.70
2022-07-28T00:30:39.225Z,17.70
2022-07-28T00:33:07.085Z,17.60
2022-07-28T00:35:34.993Z,17.60
2022-07-28T00:38:02.820Z,17.60
2022-07-28T00:40:45.908Z,17.60
2022-07-28T00:43:13.757Z,17.60
2022-07-28T00:45:41.582Z,17.50
2022-07-28T00:48:09.572Z,17.50
2022-07-28T00:50:39.535Z,17.30
2022-07-28T00:53:08.835Z,17.20
2022-07-28T00:56:02.656Z,17.20
2022-07-28T00:58:27.258Z,17.20
2022-07-28T01:00:55.119Z,17.10
2022-07-28T01:03:23.181Z,17.10
2022-07-28T01:05:53.908Z,17.10
2022-07-28T01:08:24.848Z,17.10
2022-07-28T01:10:57.122Z,17.00
2022-07-28T01:13:33.119Z,17.00
2022-07-28T01:16:03.001Z,16.90
2022-07-28T01:18:33.683Z,16.90
2022-07-28T01:21:03.727Z,16.90
2022-07-28T01:23:50.768Z,16.90
2022-07-28T01:26:39.655Z,16.80
2022-07-28T01:29:17.208Z,16.80
2022-07-28T01:31:49.656Z,16.80
2022-07-28T01:34:18.431Z,16.70
2022-07-28T01:36:47.160Z,16.70
2022-07-28T01:39:16.064Z,16.60
2022-07-28T01:41:45.005Z,16.60
2022-07-28T01:44:14.752Z,16.50
2022-07-28T01:46:43.822Z,16.50
2022-07-28T01:49:13.468Z,16.50
2022-07-28T01:51:42.423Z,16.50
2022-07-28T01:54:12.310Z,16.50
2022-07-28T01:56:41.031Z,16.50
2022-07-28T01:59:11.816Z,16.50
2022-07-28T02:01:43.179Z,16.50
2022-07-28T02:04:12.198Z,16.40
2022-07-28T02:06:42.472Z,16.40
2022-07-28T02:09:10.998Z,16.30
2022-07-28T02:11:42.064Z,16.30
2022-07-28T02:14:12.009Z,16.30
2022-07-28T02:16:41.735Z,16.30
2022-07-28T02:19:10.009Z,16.30
2022-07-28T02:21:38.019Z,16.30
2022-07-28T02:24:08.836Z,16.20
2022-07-28T02:26:37.925Z,16.20
2022-07-28T02:29:06.530Z,16.20
2022-07-28T02:31:41.960Z,16.20
2022-07-28T02:34:11.961Z,16.10
2022-07-28T02:36:42.081Z,16.20
2022-07-28T02:39:18.178Z,16.20
2022-07-28T02:41:48.406Z,16.10
2022-07-28T02:44:18.324Z,16.20
2022-07-28T02:46:47.632Z,16.10
2022-07-28T02:49:17.725Z,16.00
2022-07-28T02:51:46.440Z,16.10
2022-07-28T02:54:16.897Z,16.00
2022-07-28T02:56:53.905Z,15.90
2022-07-28T02:59:22.389Z,15.90
2022-07-28T03:01:50.635Z,16.00
2022-07-28T03:04:39.898Z,15.90
2022-07-28T03:07:08.144Z,15.90
2022-07-28T03:09:41.746Z,15.90
2022-07-28T03:12:09.686Z,15.90
2022-07-28T03:14:37.532Z,15.80
2022-07-28T03:17:05.657Z,15.90
2022-07-28T03:19:33.570Z,15.90
2022-07-28T03:22:01.688Z,15.90
2022-07-28T03:24:30.861Z,15.90
2022-07-28T03:27:02.492Z,15.80
2022-07-28T03:29:32.316Z,15.80
2022-07-28T03:32:00.881Z,15.80
2022-07-28T03:34:29.705Z,15.80
2022-07-28T03:37:00.144Z,15.90
2022-07-28T03:39:32.569Z,15.80
2022-07-28T03:42:02.491Z,15.90
2022-07-28T03:44:30.709Z,15.90
2022-07-28T03:46:58.539Z,15.90
2022-07-28T03:49:26.764Z,15.90
2022-07-28T03:51:54.601Z,15.80
2022-07-28T03:54:22.476Z,15.90
2022-07-28T03:56:50.392Z,15.90
2022-07-28T03:59:20.474Z,15.80
2022-07-28T04:01:48.708Z,15.80
2022-07-28T04:04:17.034Z,15.70
2022-07-28T04:06:45.145Z,15.80
2022-07-28T04:09:12.975Z,15.70
2022-07-28T04:11:40.822Z,15.70
2022-07-28T04:14:12.026Z,15.80
2022-07-28T04:16:43.947Z,15.70
2022-07-28T04:19:11.863Z,15.70
2022-07-28T04:21:39.723Z,15.70
2022-07-28T04:24:09.927Z,15.70
2022-07-28T04:26:38.057Z,15.70
2022-07-28T04:29:06.155Z,15.70
2022-07-28T04:31:34.050Z,15.70
2022-07-28T04:34:03.250Z,15.70
2022-07-28T04:36:31.288Z,15.70
2022-07-28T04:38:59.419Z,15.70
2022-07-28T04:41:27.981Z,15.80
2022-07-28T04:43:55.906Z,15.70
2022-07-28T04:46:23.799Z,15.70
2022-07-28T04:48:51.758Z,15.70
2022-07-28T04:51:23.064Z,15.70
2022-07-28T04:53:50.920Z,15.80
2022-07-28T04:56:18.738Z,15.80
2022-07-28T04:58:46.713Z,15.80
2022-07-28T05:01:16.021Z,15.80
2022-07-28T05:03:43.904Z,15.80
2022-07-28T05:06:11.731Z,15.80
2022-07-28T05:08:40.909Z,15.80
2022-07-28T05:11:08.792Z,15.80
2022-07-28T05:13:36.658Z,15.90
2022-07-28T05:16:04.725Z,16.00
2022-07-28T05:18:32.575Z,16.00
2022-07-28T05:21:02.260Z,16.00
2022-07-28T05:23:30.433Z,15.90
2022-07-28T05:25:59.638Z,16.00
2022-07-28T05:28:27.478Z,16.00
2022-07-28T05:30:55.332Z,16.00
2022-07-28T05:33:24.182Z,16.10
2022-07-28T05:35:59.044Z,16.20
2022-07-28T05:38:26.905Z,16.10
2022-07-28T05:40:54.784Z,16.00
2022-07-28T05:43:24.000Z,16.00
2022-07-28T05:45:51.935Z,16.10
2022-07-28T05:48:20.012Z,16.10
2022-07-28T05:50:47.922Z,16.10
2022-07-28T05:53:16.053Z,16.20
2022-07-28T05:55:59.629Z,16.20
2022-07-28T05:58:31.149Z,16.20
2022-07-28T06:00:59.871Z,16.20
2022-07-28T06:03:27.793Z,16.30
2022-07-28T06:06:14.765Z,16.30
2022-07-28T06:08:43.389Z,16.60
2022-07-28T06:11:11.916Z,16.80
2022-07-28T06:13:51.184Z,17.10
2022-07-28T06:16:19.918Z,17.30
2022-07-28T06:18:47.836Z,17.50
2022-07-28T06:21:15.694Z,17.60
2022-07-28T06:23:43.548Z,17.70
2022-07-28T06:26:11.405Z,17.80
2022-07-28T06:28:39.223Z,18.00
2022-07-28T06:31:08.497Z,17.90
2022-07-28T06:33:36.454Z,18.00
2022-07-28T06:36:04.476Z,18.30
2022-07-28T06:38:32.904Z,18.30
2022-07-28T06:41:00.935Z,18.50
2022-07-28T06:43:28.794Z,18.70
2022-07-28T06:45:56.642Z,18.90
2022-07-28T06:48:29.125Z,18.90
2022-07-28T06:50:59.711Z,18.90
2022-07-28T06:53:33.752Z,19.00
2022-07-28T06:56:03.410Z,19.10
2022-07-28T06:58:31.673Z,19.20
2022-07-28T07:00:59.942Z,19.20
2022-07-28T07:03:29.318Z,19.40
2022-07-28T07:05:57.670Z,19.80
2022-07-28T07:08:25.549Z,19.90
2022-07-28T07:10:54.824Z,20.10
2022-07-28T07:13:22.714Z,20.30
2022-07-28T07:15:50.616Z,20.50
2022-07-28T07:18:18.544Z,20.60
2022-07-28T07:20:47.745Z,20.80
2022-07-28T07:23:15.673Z,20.70
2022-07-28T07:25:43.604Z,20.80
2022-07-28T07:28:11.473Z,21.10
2022-07-28T07:30:39.390Z,21.00
2022-07-28T07:33:09.695Z,21.30
2022-07-28T07:35:38.578Z,21.00
2022-07-28T07:38:07.859Z,20.90
2022-07-28T07:40:35.774Z,20.90
2022-07-28T07:43:03.722Z,20.70
2022-07-28T07:45:31.624Z,21.40
2022-07-28T07:48:01.264Z,21.80
2022-07-28T07:50:29.106Z,22.10
2022-07-28T07:52:57.248Z,22.10
2022-07-28T07:55:26.441Z,22.20
2022-07-28T07:57:54.428Z,22.50
2022-07-28T08:00:27.892Z,22.90
2022-07-28T08:02:57.293Z,22.70
2022-07-28T08:05:34.617Z,22.90
2022-07-28T08:08:04.823Z,23.10
2022-07-28T08:10:34.339Z,23.30
2022-07-28T08:13:03.221Z,23.60
2022-07-28T08:15:31.242Z,23.60
2022-07-28T08:17:59.387Z,23.50
2022-07-28T08:20:27.251Z,23.40
2022-07-28T08:22:56.491Z,23.70
2022-07-28T08:25:24.871Z,23.80
2022-07-28T08:27:54.096Z,24.10
2022-07-28T08:30:27.457Z,23.70
2022-07-28T08:32:59.791Z,24.00
2022-07-28T08:35:33.557Z,24.10
2022-07-28T08:38:01.780Z,24.20
2022-07-28T08:40:32.327Z,24.60
2022-07-28T08:43:02.912Z,24.70
2022-07-28T08:45:33.215Z,24.70
2022-07-28T08:48:08.733Z,25.10
2022-07-28T08:50:38.676Z,25.50
2022-07-28T08:53:07.850Z,25.70
2022-07-28T08:55:36.706Z,25.50
2022-07-28T08:58:06.000Z,25.40
2022-07-28T09:00:34.336Z,25.30
2022-07-28T09:03:03.635Z,25.40
2022-07-28T09:05:31.929Z,25.80
2022-07-28T09:07:59.878Z,25.90
2022-07-28T09:10:28.155Z,26.30
2022-07-28T09:12:56.027Z,26.50
2022-07-28T09:15:25.315Z,26.40
2022-07-28T09:17:53.173Z,26.70
2022-07-28T09:20:21.170Z,26.50
2022-07-28T09:22:57.259Z,26.90
2022-07-28T09:25:25.273Z,27.40
2022-07-28T09:27:53.182Z,27.80
2022-07-28T09:30:30.625Z,27.60
2022-07-28T09:33:43.107Z,27.50
2022-07-28T09:36:14.187Z,27.80
2022-07-28T09:38:42.539Z,27.60
2022-07-28T09:41:10.582Z,27.60
2022-07-28T09:43:39.214Z,28.10
2022-07-28T09:46:09.651Z,27.80
2022-07-28T09:48:39.765Z,28.00
2022-07-28T09:51:12.138Z,27.00
2022-07-28T09:53:40.101Z,26.90
2022-07-28T09:56:08.242Z,27.40
2022-07-28T09:58:36.280Z,27.30
2022-07-28T10:01:09.874Z,27.90
2022-07-28T10:03:40.434Z,27.80
2022-07-28T10:06:09.323Z,27.80
2022-07-28T10:08:41.983Z,28.50
2022-07-28T10:11:10.859Z,28.20
2022-07-28T10:13:52.213Z,29.00
2022-07-28T10:16:21.913Z,28.60
2022-07-28T10:18:49.825Z,28.80
2022-07-28T10:21:18.511Z,28.40
2022-07-28T10:23:47.609Z,28.40
2022-07-28T10:26:15.930Z,28.70
2022-07-28T10:28:47.552Z,29.50
2022-07-28T10:31:18.731Z,29.80
2022-07-28T10:33:49.684Z,29.90
2022-07-28T10:36:18.863Z,29.70
2022-07-28T10:38:46.930Z,29.70
2022-07-28T10:41:15.563Z,30.20
2022-07-28T10:43:45.685Z,30.50
2022-07-28T10:46:16.369Z,30.20
2022-07-28T10:48:45.503Z,30.60
2022-07-28T10:51:15.035Z,30.80
2022-07-28T10:53:47.026Z,30.80
2022-07-28T10:56:16.762Z,31.10
2022-07-28T10:58:48.656Z,31.60
2022-07-28T11:01:47.585Z,31.60
2022-07-28T11:04:35.803Z,31.80
2022-07-28T11:07:12.059Z,31.80
2022-07-28T11:09:40.047Z,32.00
2022-07-28T11:12:09.634Z,32.10
2022-07-28T11:14:39.552Z,32.60
2022-07-28T11:17:15.430Z,32.50
2022-07-28T11:20:24.906Z,32.70
2022-07-28T11:22:45.748Z,32.70
2022-07-28T11:25:20.226Z,32.30
2022-07-28T11:28:05.604Z,32.40
2022-07-28T11:30:53.945Z,32.40
2022-07-28T11:33:22.588Z,32.00
2022-07-28T11:35:54.321Z,30.80
2022-07-28T11:38:24.010Z,30.50
2022-07-28T11:40:52.930Z,30.60
2022-07-28T11:43:41.448Z,30.80
2022-07-28T11:46:34.451Z,30.30
2022-07-28T11:49:27.686Z,30.00
2022-07-28T11:52:10.545Z,29.70
2022-07-28T11:54:40.383Z,29.60
2022-07-28T11:57:09.974Z,29.40
2022-07-28T11:59:42.071Z,29.20
2022-07-28T12:02:10.061Z,29.00
2022-07-28T12:04:38.028Z,29.10
2022-07-28T12:07:06.962Z,29.20
2022-07-28T12:09:41.911Z,28.90
2022-07-28T12:12:11.426Z,28.80
2022-07-28T12:14:40.146Z,28.50
2022-07-28T12:17:08.516Z,28.30
2022-07-28T12:19:36.404Z,28.30
2022-07-28T12:22:15.575Z,28.10
2022-07-28T12:24:45.947Z,28.50
2022-07-28T12:27:16.563Z,28.60
2022-07-28T12:29:49.356Z,28.70
2022-07-28T12:32:18.633Z,28.90
2022-07-28T12:34:46.592Z,29.00
2022-07-28T12:37:14.905Z,29.20
2022-07-28T12:39:44.300Z,29.70
2022-07-28T12:42:13.019Z,29.80
2022-07-28T12:44:43.120Z,30.30
2022-07-28T12:47:12.264Z,30.70
2022-07-28T12:49:40.898Z,29.30
2022-07-28T12:52:18.659Z,29.40
2022-07-28T12:54:54.641Z,29.70
2022-07-28T12:57:38.062Z,30.20
2022-07-28T13:00:08.689Z,30.00
2022-07-28T13:02:37.220Z,29.70
2022-07-28T13:05:07.759Z,29.90
2022-07-28T13:07:35.619Z,29.70
2022-07-28T13:10:06.041Z,29.50
2022-07-28T13:12:39.444Z,29.60
2022-07-28T13:15:17.065Z,29.80
2022-07-28T13:17:53.023Z,29.90
2022-07-28T13:20:21.995Z,29.60
2022-07-28T13:22:49.856Z,29.40
2022-07-28T13:25:17.726Z,29.20
2022-07-28T13:27:49.548Z,29.20
2022-07-28T13:30:21.659Z,29.20
2022-07-28T13:32:50.557Z,29.40
2022-07-28T13:35:18.901Z,29.20
2022-07-28T13:37:48.947Z,28.50
2022-07-28T13:40:16.819Z,28.60
2022-07-28T13:42:52.951Z,28.90
2022-07-28T13:45:30.347Z,28.90
2022-07-28T13:47:58.311Z,29.20
2022-07-28T13:50:27.140Z,29.20
2022-07-28T13:52:55.009Z,29.30
2022-07-28T13:55:23.224Z,29.90
2022-07-28T13:57:51.590Z,29.80
2022-07-28T14:00:22.612Z,30.00
2022-07-28T14:02:52.216Z,29.80
2022-07-28T14:05:20.249Z,29.90
2022-07-28T14:07:49.228Z,30.40
2022-07-28T14:10:17.857Z,30.50
2022-07-28T14:12:46.028Z,30.50
2022-07-28T14:15:14.922Z,30.20
2022-07-28T14:17:45.713Z,30.00
2022-07-28T14:20:15.913Z,29.90
2022-07-28T14:22:44.034Z,29.60
2022-07-28T14:25:12.014Z,29.70
2022-07-28T14:27:47.458Z,29.20
2022-07-28T14:30:15.353Z,29.00
2022-07-28T14:32:43.222Z,29.20
2022-07-28T14:35:11.097Z,29.30
2022-07-28T14:38:23.256Z,29.20
2022-07-28T14:40:28.189Z,29.30
2022-07-28T14:42:56.147Z,29.40
2022-07-28T14:45:23.985Z,29.50
2022-07-28T14:47:52.457Z,29.40
2022-07-28T14:50:20.370Z,29.40
2022-07-28T14:52:49.670Z,29.40
2022-07-28T14:55:17.524Z,29.50
2022-07-28T14:57:48.265Z,29.50
2022-07-28T15:00:20.810Z,29.60
2022-07-28T15:02:48.788Z,29.60
2022-07-28T15:05:16.722Z,29.30
2022-07-28T15:07:44.983Z,29.50
2022-07-28T15:10:14.196Z,29.20
2022-07-28T15:12:42.106Z,28.80
2022-07-28T15:15:10.449Z,28.90
2022-07-28T15:17:38.725Z,28.70
2022-07-28T15:20:07.297Z,28.80
2022-07-28T15:22:35.346Z,28.80
2022-07-28T15:25:04.109Z,29.10
2022-07-28T15:27:34.011Z,28.90
2022-07-28T15:30:02.658Z,28.70
2022-07-28T15:32:30.996Z,28.90
2022-07-28T15:34:58.846Z,28.90
2022-07-28T15:37:27.243Z,28.80
2022-07-28T15:39:55.121Z,28.60
2022-07-28T15:42:23.007Z,28.50
2022-07-28T15:44:52.790Z,28.30
2022-07-28T15:47:20.692Z,28.20
2022-07-28T15:49:48.525Z,28.20
2022-07-28T15:52:16.400Z,28.00
2022-07-28T15:54:44.252Z,27.90
2022-07-28T15:57:13.948Z,27.80
2022-07-28T15:59:48.707Z,27.80
2022-07-28T16:02:19.626Z,27.70
2022-07-28T16:04:53.395Z,27.50
2022-07-28T16:07:23.901Z,27.50
2022-07-28T16:09:52.033Z,27.60
2022-07-28T16:12:20.592Z,27.60
2022-07-28T16:14:48.444Z,27.70
2022-07-28T16:17:16.314Z,27.90
2022-07-28T16:19:50.179Z,27.70
2022-07-28T16:22:18.712Z,27.60
2022-07-28T16:24:46.910Z,27.70
2022-07-28T16:27:15.101Z,28.00
2022-07-28T16:29:43.090Z,27.90
2022-07-28T16:32:11.203Z,27.80
2022-07-28T16:34:39.056Z,27.70
2022-07-28T16:37:08.274Z,27.80
2022-07-28T16:39:36.132Z,27.60
2022-07-28T16:42:04.043Z,27.40
2022-07-28T16:44:31.957Z,27.40
2022-07-28T16:47:02.574Z,27.20
2022-07-28T16:49:30.527Z,27.10
2022-07-28T16:51:58.477Z,27.10
2022-07-28T16:54:27.724Z,26.90
2022-07-28T16:56:55.636Z,27.00
2022-07-28T16:59:23.575Z,27.10
2022-07-28T17:02:04.372Z,27.10
2022-07-28T17:04:32.362Z,27.60
2022-07-28T17:07:00.322Z,27.50
2022-07-28T17:09:29.607Z,27.50
2022-07-28T17:11:57.438Z,27.60
2022-07-28T17:14:25.276Z,27.80
2022-07-28T17:16:53.115Z,27.80
2022-07-28T17:19:22.205Z,27.90
2022-07-28T17:21:50.248Z,28.10
2022-07-28T17:24:18.636Z,28.00
2022-07-28T17:29:36.631Z,27.70
2022-07-28T17:32:04.548Z,27.60
2022-07-28T17:34:34.258Z,27.40
2022-07-28T17:37:02.080Z,27.40
2022-07-28T17:39:29.998Z,27.10
2022-07-28T17:41:59.302Z,27.00
2022-07-28T17:44:27.167Z,27.10
2022-07-28T17:46:55.120Z,27.10
2022-07-28T17:49:23.198Z,27.00
2022-07-28T17:51:51.079Z,27.10
2022-07-28T17:54:22.871Z,27.10
2022-07-28T17:56:52.534Z,27.20
2022-07-28T17:59:22.858Z,27.20
2022-07-28T18:01:50.766Z,27.10
2022-07-28T18:04:19.061Z,27.00
2022-07-28T18:06:47.340Z,26.90
2022-07-28T18:09:15.509Z,26.80
2022-07-28T18:11:57.739Z,26.80
2022-07-28T18:14:28.923Z,26.80
2022-07-28T18:16:57.251Z,26.80
2022-07-28T18:19:25.274Z,26.80
2022-07-28T18:21:53.149Z,26.70
2022-07-28T18:24:22.308Z,26.70
2022-07-28T18:26:50.722Z,26.50
2022-07-28T18:29:20.200Z,26.40
2022-07-28T18:31:51.162Z,26.20
2022-07-28T18:34:19.756Z,26.00
2022-07-28T18:36:51.421Z,25.90
2022-07-28T18:39:19.274Z,25.90
2022-07-28T18:41:47.931Z,25.80
2022-07-28T18:44:17.561Z,25.60
2022-07-28T18:46:46.571Z,25.60
2022-07-28T18:49:16.002Z,25.50
2022-07-28T18:51:45.178Z,25.50
2022-07-28T18:54:15.162Z,25.40
2022-07-28T18:56:45.601Z,25.30
2022-07-28T18:59:13.514Z,25.30
2022-07-28T19:01:41.439Z,25.20
2022-07-28T19:04:09.377Z,25.20
2022-07-28T19:06:38.618Z,25.10
2022-07-28T19:09:06.936Z,25.00
2022-07-28T19:11:35.034Z,24.90
2022-07-28T19:14:02.884Z,24.80
2022-07-28T19:16:30.883Z,24.80
2022-07-28T19:18:58.812Z,24.80
2022-07-28T19:21:26.700Z,24.70
2022-07-28T19:23:55.901Z,24.70
2022-07-28T19:26:24.257Z,24.60
2022-07-28T19:28:52.195Z,24.50
2022-07-28T19:31:20.187Z,24.50
2022-07-28T19:33:48.121Z,24.40
2022-07-28T19:36:16.079Z,24.40
2022-07-28T19:38:44.146Z,24.20
2022-07-28T19:41:13.978Z,24.10
2022-07-28T19:43:42.168Z,24.20
2022-07-28T19:46:10.273Z,24.10
2022-07-28T19:48:38.672Z,24.00
2022-07-28T19:51:06.850Z,23.90
2022-07-28T19:53:36.369Z,24.00
2022-07-28T19:56:08.889Z,23.80
2022-07-28T19:58:38.532Z,23.90
2022-07-28T20:01:06.940Z,23.80
2022-07-28T20:04:01.646Z,23.80
2022-07-28T20:06:25.003Z,23.80
2022-07-28T20:08:53.965Z,23.70
2022-07-28T20:11:21.839Z,23.60
2022-07-28T20:13:51.115Z,23.60
2022-07-28T20:16:19.053Z,23.60
2022-07-28T20:18:46.985Z,23.50
2022-07-28T20:21:14.890Z,23.50
2022-07-28T20:23:42.760Z,23.50
2022-07-28T20:26:10.645Z,23.40
2022-07-28T20:28:38.836Z,23.40
2022-07-28T20:31:12.377Z,23.40
2022-07-28T20:33:42.871Z,23.30
2022-07-28T20:36:10.733Z,23.20
2022-07-28T20:38:39.494Z,23.20
2022-07-28T20:41:07.788Z,23.20
2022-07-28T20:43:36.172Z,23.10
2022-07-28T20:46:05.654Z,23.00
2022-07-28T20:48:35.775Z,23.00
2022-07-28T20:51:03.704Z,22.90
2022-07-28T20:53:31.591Z,22.90
2022-07-28T20:55:59.505Z,22.90
2022-07-28T20:58:27.409Z,22.90
2022-07-28T21:00:55.324Z,22.90
2022-07-28T21:03:23.262Z,22.90
2022-07-28T21:05:52.473Z,22.80
2022-07-28T21:08:20.294Z,22.80
2022-07-28T21:10:48.625Z,22.70
2022-07-28T21:13:16.448Z,22.70
2022-07-28T21:15:44.369Z,22.70
2022-07-28T21:18:12.234Z,22.70
2022-07-28T21:20:40.127Z,22.70
2022-07-28T21:23:09.345Z,22.60
2022-07-28T21:25:37.201Z,22.60
2022-07-28T21:28:22.861Z,22.50
2022-07-28T21:30:50.719Z,22.50
2022-07-28T21:33:22.955Z,22.40
2022-07-28T21:35:51.264Z,22.50
2022-07-28T21:38:20.576Z,22.40
2022-07-28T21:40:48.820Z,22.40
2022-07-28T21:43:16.699Z,22.40
2022-07-28T21:45:45.627Z,22.40
2022-07-28T21:48:13.672Z,22.40
2022-07-28T21:50:41.533Z,22.30
2022-07-28T21:53:12.818Z,22.30
2022-07-28T21:55:44.657Z,22.30
2022-07-28T21:58:12.546Z,22.30
2022-07-28T22:00:40.618Z,22.20
2022-07-28T22:03:09.341Z,22.20
2022-07-28T22:05:37.392Z,22.10
2022-07-28T22:08:05.495Z,22.10
2022-07-28T22:10:33.331Z,22.00
2022-07-28T22:13:02.533Z,22.10
2022-07-28T22:15:30.393Z,22.00
2022-07-28T22:17:58.230Z,22.00
2022-07-28T22:20:26.097Z,21.90
2022-07-28T22:22:54.900Z,21.90
2022-07-28T22:25:22.847Z,21.80
2022-07-28T22:27:50.708Z,21.90
2022-07-28T22:30:20.241Z,21.80
2022-07-28T22:32:48.095Z,21.90
2022-07-28T22:35:15.972Z,21.90
2022-07-28T22:37:44.694Z,21.90
2022-07-28T22:40:13.093Z,21.80
2022-07-28T22:42:40.916Z,21.80
2022-07-28T22:45:09.333Z,21.80
2022-07-28T22:47:38.782Z,21.80
2022-07-28T22:50:07.324Z,21.70
2022-07-28T22:52:35.175Z,21.60
2022-07-28T22:57:48.635Z,21.50
2022-07-28T23:00:16.977Z,21.40
2022-07-28T23:02:47.837Z,21.40
2022-07-28T23:05:15.963Z,21.30
2022-07-28T23:07:53.387Z,21.30
2022-07-28T23:10:25.483Z,21.30
2022-07-28T23:12:57.303Z,21.20
2022-07-28T23:15:40.763Z,21.20
2022-07-28T23:18:11.230Z,21.20
2022-07-28T23:20:39.474Z,21.20
2022-07-28T23:23:07.659Z,21.20
2022-07-28T23:25:37.246Z,21.10
2022-07-28T23:28:05.272Z,21.00
2022-07-28T23:30:33.305Z,21.00
2022-07-28T23:33:01.214Z,21.00
2022-07-28T23:35:30.455Z,21.00
2022-07-28T23:37:58.411Z,20.90
2022-07-28T23:40:26.476Z,20.90
2022-07-28T23:42:54.362Z,20.90
2022-07-28T23:45:22.327Z,20.90
2022-07-28T23:47:53.868Z,20.80
2022-07-28T23:50:24.701Z,20.70
2022-07-28T23:52:53.977Z,20.70
2022-07-28T23:55:21.980Z,20.70
2022-07-28T23:57:49.882Z,20.70
